Time;durP1;ratioP1;P1;durP2;ratioP2;P2;SDS_P1;SDS_P2;PMS_P1;PMS_P2;Temp;Humidity;BMP_temperature;BMP_pressure;BME280_temperature;BME280_humidity;BME280_pressure;Samples;Min_cycle;Max_cycle;Signal;HPM_P1;HPM_P2
2023/04/15 00:02:54;;;;;;;0.50;0.30;;;;;;;1.91;90.07;96307.44;6010472;29;20711;-47
2023/04/15 00:06:00;;;;;;;0.37;0.20;;;;;;;1.84;90.15;96310.16;6005973;29;20340;-48
2023/04/15 00:09:03;;;;;;;3.13;0.30;;;;;;;1.77;90.01;96304.16;6023232;29;20302;-48
2023/04/15 00:12:06;;;;;;;0.53;0.20;;;;;;;1.67;89.91;96317.78;6007631;29;20230;-51
2023/04/15 00:15:11;;;;;;;3.13;0.37;;;;;;;1.61;90.02;96320.50;6005473;29;20253;-48
2023/04/15 00:18:13;;;;;;;0.20;0.20;;;;;;;1.58;89.96;96324.38;6021653;29;20227;-49
2023/04/15 00:21:16;;;;;;;1.50;0.20;;;;;;;1.54;90.08;96315.34;6026367;29;20222;-52
2023/04/15 00:24:18;;;;;;;3.20;0.20;;;;;;;1.52;90.01;96348.84;6023392;23;20627;-92
2023/04/15 00:27:20;;;;;;;0.57;0.30;;;;;;;0.91;89.99;96263.06;5981650;29;20219;-93
2023/04/15 00:30:25;;;;;;;1.60;0.30;;;;;;;0.25;90.11;96154.41;5985783;29;20606;-92
2023/04/15 00:33:30;;;;;;;0.93;0.30;;;;;;;1.31;89.95;96309.91;5970907;29;20236;-93
2023/04/15 00:36:33;;;;;;;0.30;0.30;;;;;;;-0.48;90.08;96076.44;5987857;29;20240;-92
2023/04/15 00:39:36;;;;;;;1.10;0.20;;;;;;;-0.50;89.79;96083.66;5982208;29;20238;-93
2023/04/15 00:42:41;;;;;;;1.37;0.33;;;;;;;0.53;89.77;96235.16;5985456;29;20286;-92
2023/04/15 00:45:43;;;;;;;0.80;0.20;;;;;;;-0.90;89.66;96026.38;5969170;29;20339;-94
2023/04/15 00:48:46;;;;;;;0.50;0.30;;;;;;;-2.02;89.49;95845.00;5969848;29;20303;-93
2023/04/15 00:51:48;;;;;;;0.20;0.20;;;;;;;-1.87;89.56;95857.78;5969007;29;20245;-93
2023/04/15 00:54:51;;;;;;;0.67;0.30;;;;;;;-1.93;89.47;95856.78;5966248;29;20261;-92
2023/04/15 00:57:55;;;;;;;0.20;0.20;;;;;;;-0.27;89.91;96117.13;5978056;29;20252;-93
2023/04/15 01:00:57;;;;;;;0.60;0.20;;;;;;;0.07;89.81;96185.75;5982952;29;20244;-93
2023/04/15 01:04:01;;;;;;;0.67;0.33;;;;;;;-1.15;89.57;96000.19;5978487;29;20335;-92
2023/04/15 01:07:03;;;;;;;0.23;0.20;;;;;;;0.62;89.89;96283.66;5966620;29;20642;-93
2023/04/15 01:10:07;;;;;;;0.27;0.20;;;;;;;-2.11;89.20;95872.34;5981759;29;20239;-93
2023/04/15 01:13:12;;;;;;;0.60;0.60;;;;;;;-0.14;89.61;96164.16;5981245;29;20251;-93
2023/04/15 01:16:15;;;;;;;1.53;0.50;;;;;;;-0.57;89.75;96115.09;5969216;29;20604;-93
2023/04/15 01:19:18;;;;;;;0.40;0.30;;;;;;;-0.22;89.72;96197.63;5985952;29;20237;-92
2023/04/15 01:22:25;;;;;;;0.40;0.30;;;;;;;0.50;90.02;96282.75;5959416;29;20240;-93
2023/04/15 01:25:32;;;;;;;0.40;0.40;;;;;;;-2.16;89.47;95877.38;5982983;29;20236;-92
2023/04/15 01:28:36;;;;;;;0.40;0.30;;;;;;;0.95;89.98;96361.25;5975314;29;20729;-92
2023/04/15 01:31:39;;;;;;;0.20;0.20;;;;;;;0.13;89.97;96239.88;5978508;29;20729;-92
2023/04/15 01:34:41;;;;;;;0.30;0.20;;;;;;;0.95;90.08;96362.06;5986550;29;20377;-93
2023/04/15 01:37:44;;;;;;;0.37;0.20;;;;;;;0.96;89.85;96383.84;5981532;29;20900;-92
2023/04/15 01:40:46;;;;;;;0.77;0.30;;;;;;;0.49;90.29;96296.84;5987488;29;20545;-93
2023/04/15 01:43:49;;;;;;;0.30;0.30;;;;;;;0.27;90.24;96261.56;5985346;29;20235;-92
2023/04/15 01:46:51;;;;;;;0.30;0.30;;;;;;;0.68;90.28;96322.13;5989525;29;20250;-93
2023/04/15 01:49:54;;;;;;;0.20;0.20;;;;;;;1.05;90.48;96371.28;5969830;29;20244;-93
2023/04/15 01:52:57;;;;;;;0.40;0.23;;;;;;;0.59;90.07;96299.84;5985562;29;20243;-92
2023/04/15 01:56:01;;;;;;;0.17;0.17;;;;;;;0.89;90.18;96346.38;5988264;29;20604;-93
2023/04/15 01:59:03;;;;;;;0.20;0.20;;;;;;;-0.50;90.31;96151.66;5967546;29;20232;-92
2023/04/15 02:02:05;;;;;;;0.40;0.30;;;;;;;0.32;90.30;96244.19;5968795;29;20240;-93
2023/04/15 02:05:08;;;;;;;0.30;0.30;;;;;;;0.91;90.23;96326.78;5983238;29;20253;-93
2023/04/15 02:08:11;;;;;;;0.40;0.40;;;;;;;-0.33;90.11;96142.31;5987948;29;20341;-94
2023/04/15 02:11:14;;;;;;;1.27;0.40;;;;;;;-0.75;90.01;96106.34;5992216;29;20776;-93
2023/04/15 02:14:18;;;;;;;1.10;0.60;;;;;;;-1.28;89.89;96007.28;5986374;29;20266;-93
2023/04/15 02:17:22;;;;;;;1.07;0.40;;;;;;;-1.93;90.12;95921.22;5967317;29;20238;-93
2023/04/15 02:20:24;;;;;;;0.30;0.30;;;;;;;-0.70;90.14;96101.28;5987583;29;20231;-92
2023/04/15 02:23:26;;;;;;;0.60;0.40;;;;;;;-0.25;90.40;96185.75;5970252;29;20236;-94
2023/04/15 02:26:31;;;;;;;2.93;0.40;;;;;;;1.14;90.43;96425.88;5986235;29;20468;-93
2023/04/15 02:29:33;;;;;;;0.50;0.40;;;;;;;1.15;90.38;96413.56;5987851;29;20236;-93
2023/04/15 02:32:36;;;;;;;1.00;0.50;;;;;;;0.32;90.58;96265.13;5970558;29;20237;-94
2023/04/15 02:35:43;;;;;;;0.30;0.30;;;;;;;-0.32;90.26;96164.06;5984615;29;20245;-94
2023/04/15 02:38:45;;;;;;;0.63;0.37;;;;;;;-0.34;90.39;96169.50;5983890;29;20250;-94
2023/04/15 02:41:52;;;;;;;0.30;0.30;;;;;;;0.93;90.37;96360.66;5967992;29;20240;-93
2023/04/15 02:44:55;;;;;;;0.40;0.40;;;;;;;-0.44;90.20;96170.94;5969933;29;20303;-94
2023/04/15 02:48:05;;;;;;;0.40;0.40;;;;;;;0.90;90.57;96361.09;5978084;29;20232;-93
2023/04/15 02:51:18;;;;;;;1.33;0.73;;;;;;;-0.01;90.52;96215.59;5983139;29;20235;-93
2023/04/15 02:54:22;;;;;;;0.30;0.30;;;;;;;0.01;90.53;96239.75;5981601;29;20323;-92
2023/04/15 02:57:25;;;;;;;0.20;0.20;;;;;;;-0.15;90.32;96206.22;5980709;29;20234;-94
2023/04/15 03:00:29;;;;;;;0.43;0.43;;;;;;;-0.03;90.57;96241.19;5969357;29;20373;-93
2023/04/15 03:03:32;;;;;;;0.57;0.30;;;;;;;0.50;90.31;96340.41;5980423;29;20637;-94
2023/04/15 03:06:37;;;;;;;0.53;0.40;;;;;;;-0.82;90.25;96128.09;5973520;29;20235;-92
2023/04/15 03:09:47;;;;;;;0.40;0.40;;;;;;;-2.25;90.32;95915.91;5967891;29;20596;-94
2023/04/15 03:12:50;;;;;;;0.30;0.30;;;;;;;-1.82;90.35;95973.59;5991452;29;20229;-94
2023/04/15 03:15:55;;;;;;;1.90;0.40;;;;;;;0.42;90.91;96348.50;5990838;29;20250;-93
2023/04/15 03:18:59;;;;;;;0.33;0.33;;;;;;;-0.40;90.67;96188.63;6012092;29;20253;-92
2023/04/15 03:22:03;;;;;;;0.47;0.47;;;;;;;-1.75;90.66;95973.56;6012633;29;20229;-93
2023/04/15 03:25:06;;;;;;;0.87;0.57;;;;;;;-0.58;90.62;96137.03;6012738;29;20304;-93
2023/04/15 03:28:09;;;;;;;0.30;0.30;;;;;;;-2.05;90.64;95933.31;5988492;29;20246;-94
2023/04/15 03:31:12;;;;;;;1.93;0.40;;;;;;;-1.94;90.32;95933.47;5989178;29;20326;-93
2023/04/15 03:34:14;;;;;;;0.60;0.47;;;;;;;-0.45;90.96;96166.75;5980782;29;20259;-94
2023/04/15 03:37:17;;;;;;;0.50;0.40;;;;;;;0.35;90.75;96309.25;5984281;29;20239;-94
2023/04/15 03:40:32;;;;;;;0.50;0.40;;;;;;;1.21;91.08;96424.00;5980074;29;20233;-94
2023/04/15 03:43:44;;;;;;;0.40;0.40;;;;;;;-2.13;90.28;95911.66;5967302;29;20735;-93
2023/04/15 03:46:46;;;;;;;0.57;0.40;;;;;;;-0.41;90.62;96196.69;5971959;29;20247;-93
2023/04/15 03:49:49;;;;;;;0.30;0.30;;;;;;;-0.69;90.70;96132.47;5984739;29;20242;-93
2023/04/15 03:52:52;;;;;;;0.50;0.43;;;;;;;-0.77;90.88;96134.53;5971534;29;20334;-93
2023/04/15 03:55:54;;;;;;;0.80;0.43;;;;;;;-0.03;91.10;96228.91;5962569;29;20243;-94
2023/04/15 03:59:00;;;;;;;1.47;0.30;;;;;;;-0.45;90.81;96183.22;5977431;29;20244;-94
2023/04/15 04:02:05;;;;;;;0.63;0.50;;;;;;;0.14;90.72;96273.69;5980941;29;20246;-93
2023/04/15 04:05:08;;;;;;;0.47;0.40;;;;;;;0.35;91.02;96290.94;5979847;29;20241;-95
2023/04/15 04:08:15;;;;;;;0.40;0.40;;;;;;;1.28;91.33;96435.25;5982321;29;20245;-92
2023/04/15 04:11:17;;;;;;;0.50;0.50;;;;;;;-1.29;91.10;96053.50;5980714;29;20241;-93
2023/04/15 04:14:20;;;;;;;0.50;0.40;;;;;;;-1.55;90.74;96007.41;5968334;29;20236;-93
2023/04/15 04:17:22;;;;;;;0.60;0.40;;;;;;;-0.70;91.07;96130.84;5983558;29;20845;-94
2023/04/15 04:20:25;;;;;;;0.90;0.40;;;;;;;1.35;91.50;96476.38;5964753;29;20246;-94
2023/04/15 04:23:27;;;;;;;1.13;0.83;;;;;;;1.14;91.43;96420.63;5984728;29;20241;-93
2023/04/15 04:26:30;;;;;;;0.50;0.40;;;;;;;0.05;91.00;96251.44;5947639;29;20244;-94
2023/04/15 04:29:35;;;;;;;0.63;0.60;;;;;;;-1.45;91.15;96026.06;5940803;29;20235;-93
2023/04/15 04:32:37;;;;;;;0.70;0.53;;;;;;;-0.20;91.25;96214.69;5945403;29;20244;-93
2023/04/15 04:35:40;;;;;;;0.70;0.50;;;;;;;1.40;91.50;96458.16;5939018;29;20255;-93
2023/04/15 04:38:45;;;;;;;1.00;0.60;;;;;;;-0.78;91.23;96133.72;5937564;29;20719;-92
2023/04/15 04:41:47;;;;;;;0.37;0.30;;;;;;;-0.09;91.39;96234.19;5937519;29;20235;-93
2023/04/15 04:44:50;;;;;;;0.50;0.40;;;;;;;-0.71;91.12;96167.69;5940993;29;20246;-92
2023/04/15 04:47:54;;;;;;;0.40;0.40;;;;;;;1.46;91.72;96473.84;5938190;29;20245;-93
2023/04/15 04:50:56;;;;;;;1.40;0.77;;;;;;;1.00;91.28;96390.28;5936535;29;20327;-95
2023/04/15 04:54:02;;;;;;;1.37;0.63;;;;;;;-0.39;91.41;96205.97;5929173;29;20233;-94
2023/04/15 04:57:12;;;;;;;0.37;0.37;;;;;;;-0.02;91.13;96255.88;5916570;29;20723;-93
2023/04/15 05:00:18;;;;;;;0.70;0.50;;;;;;;-1.69;91.14;95971.91;5942097;29;20245;-92
2023/04/15 05:03:23;;;;;;;0.77;0.50;;;;;;;0.35;91.34;96298.78;5922247;29;20294;-92
2023/04/15 05:06:26;;;;;;;0.40;0.40;;;;;;;1.58;91.17;96508.09;5944148;29;20235;-92
2023/04/15 05:09:31;;;;;;;0.40;0.40;;;;;;;1.34;91.45;96441.47;5926235;29;20240;-93
2023/04/15 05:12:34;;;;;;;0.30;0.30;;;;;;;0.07;91.38;96232.88;5937201;29;20695;-94
2023/04/15 05:15:38;;;;;;;0.40;0.40;;;;;;;1.71;91.56;96515.84;5941586;29;20287;-93
2023/04/15 05:18:41;;;;;;;0.30;0.30;;;;;;;0.29;91.49;96262.13;5929803;29;20240;-92
2023/04/15 05:21:43;;;;;;;0.80;0.50;;;;;;;0.61;91.21;96316.13;5933951;29;20232;-92
2023/04/15 05:24:45;;;;;;;1.70;0.70;;;;;;;-0.13;91.01;96252.13;5944871;29;20328;-94
2023/04/15 05:27:48;;;;;;;0.30;0.30;;;;;;;-0.50;91.16;96153.47;5967912;29;20250;-92
2023/04/15 05:30:55;;;;;;;0.30;0.30;;;;;;;0.60;91.47;96335.50;5968476;29;20310;-92
2023/04/15 05:33:58;;;;;;;0.67;0.50;;;;;;;0.81;91.53;96339.56;5961195;29;20299;-93
2023/04/15 05:37:00;;;;;;;0.40;0.30;;;;;;;1.84;91.49;96501.81;5970156;29;20236;-93
2023/04/15 05:40:03;;;;;;;1.03;0.50;;;;;;;-0.07;91.45;96240.00;5973411;29;20240;-93
2023/04/15 05:43:05;;;;;;;0.50;0.50;;;;;;;-0.63;91.66;96128.22;5984380;29;20239;-93
2023/04/15 05:46:08;;;;;;;0.47;0.47;;;;;;;0.89;91.49;96349.81;5970894;29;20244;-92
2023/04/15 05:49:10;;;;;;;1.33;0.67;;;;;;;1.34;91.67;96420.47;5985309;29;20244;-93
2023/04/15 05:52:15;;;;;;;0.50;0.50;;;;;;;0.55;91.60;96303.88;5981346;29;20244;-94
2023/04/15 05:55:21;;;;;;;1.43;0.43;;;;;;;1.25;91.44;96406.81;5980985;29;20476;-93
2023/04/15 05:58:23;;;;;;;0.60;0.60;;;;;;;0.27;91.53;96230.94;5981330;29;20234;-93
2023/04/15 06:01:25;;;;;;;1.70;0.40;;;;;;;2.15;91.65;96516.69;5977952;29;20256;-94
2023/04/15 06:04:27;;;;;;;1.50;0.60;;;;;;;-0.75;90.80;96056.66;5985086;29;20245;-94
2023/04/15 06:07:30;;;;;;;1.90;0.70;;;;;;;1.21;91.63;96368.09;5979124;29;20249;-94
2023/04/15 06:10:35;;;;;;;0.60;0.60;;;;;;;0.42;91.80;96262.06;5990499;29;20236;-93
2023/04/15 06:13:37;;;;;;;1.43;1.00;;;;;;;-0.66;91.36;96089.41;6005593;29;20236;-93
2023/04/15 06:16:40;;;;;;;0.80;0.80;;;;;;;2.38;91.90;96521.31;6008994;24;20227;-41
2023/04/15 06:19:42;;;;;;;1.20;0.60;;;;;;;2.52;91.86;96527.25;5973049;29;20243;-41
2023/04/15 06:22:44;;;;;;;2.00;0.73;;;;;;;2.59;92.03;96528.75;5988261;29;20241;-41
2023/04/15 06:25:46;;;;;;;2.50;0.80;;;;;;;2.59;91.88;96512.97;5994399;29;20319;-41
2023/04/15 06:28:48;;;;;;;0.60;0.60;;;;;;;2.79;91.79;96530.34;6002609;29;20254;-40
2023/04/15 06:31:52;;;;;;;0.40;0.40;;;;;;;2.90;92.08;96532.22;5974579;29;20251;-41
2023/04/15 06:34:54;;;;;;;0.80;0.33;;;;;;;2.95;92.11;96526.31;5974415;29;20342;-41
2023/04/15 06:37:56;;;;;;;0.63;0.50;;;;;;;2.84;91.93;96505.00;5971887;29;20243;-41
2023/04/15 06:40:59;;;;;;;0.57;0.40;;;;;;;3.13;91.96;96544.72;5973554;29;20247;-41
2023/04/15 06:44:05;;;;;;;0.30;0.30;;;;;;;3.23;91.92;96541.53;5985611;29;20287;-41
2023/04/15 06:47:11;;;;;;;0.77;0.30;;;;;;;3.33;91.96;96549.69;5978468;29;20243;-41
2023/04/15 06:50:15;;;;;;;0.77;0.50;;;;;;;3.44;91.94;96542.88;5977242;29;20250;-42
2023/04/15 06:53:19;;;;;;;0.50;0.40;;;;;;;3.52;91.82;96550.47;5980435;29;20235;-41
2023/04/15 06:56:23;;;;;;;0.87;0.60;;;;;;;3.53;91.88;96544.16;5978239;29;20242;-41
2023/04/15 06:59:27;;;;;;;0.40;0.40;;;;;;;3.63;91.84;96550.47;6001376;29;20238;-41
2023/04/15 07:02:34;;;;;;;0.53;0.30;;;;;;;3.75;91.70;96565.53;5983223;29;20241;-41
2023/04/15 07:05:39;;;;;;;1.33;0.40;;;;;;;3.60;91.86;96521.19;5977995;29;20241;-41
2023/04/15 07:08:49;;;;;;;0.90;0.60;;;;;;;3.94;92.07;96567.06;5977626;29;20244;-41
2023/04/15 07:11:57;;;;;;;0.63;0.60;;;;;;;3.99;91.69;96561.06;5982097;29;20244;-41
2023/04/15 07:15:05;;;;;;;0.97;0.50;;;;;;;4.02;91.75;96560.63;5980964;29;20754;-41
2023/04/15 07:18:14;;;;;;;1.13;0.80;;;;;;;4.07;91.42;96566.03;5993317;29;20253;-42
2023/04/15 07:21:20;;;;;;;0.60;0.60;;;;;;;4.12;91.34;96564.31;5995728;29;20246;-41
2023/04/15 07:24:25;;;;;;;1.30;0.60;;;;;;;4.14;91.05;96570.16;6005249;29;20721;-41
2023/04/15 07:27:36;;;;;;;0.80;0.70;;;;;;;4.19;91.12;96569.50;5999421;29;20699;-41
2023/04/15 07:30:56;;;;;;;0.50;0.50;;;;;;;4.25;91.07;96573.84;5996210;29;20318;-41
2023/04/15 07:34:02;;;;;;;0.70;0.70;;;;;;;4.39;91.19;96577.06;6004790;29;20255;-41
2023/04/15 07:37:10;;;;;;;0.90;0.77;;;;;;;4.46;91.10;96585.66;6001572;29;20248;-43
2023/04/15 07:40:30;;;;;;;0.70;0.70;;;;;;;4.48;90.77;96580.94;5996592;29;20608;-43
2023/04/15 07:43:58;;;;;;;1.47;1.03;;;;;;;4.47;90.71;96589.88;6008684;29;20722;-42
2023/04/15 07:47:30;;;;;;;1.27;1.00;;;;;;;4.49;90.65;96587.03;5996700;29;20256;-41
2023/04/15 07:50:54;;;;;;;0.67;0.67;;;;;;;4.54;90.60;96595.06;6005970;29;20735;-42
2023/04/15 07:54:11;;;;;;;1.10;1.00;;;;;;;4.51;90.43;96591.03;6000884;29;20250;-42
2023/04/15 07:57:40;;;;;;;1.17;1.00;;;;;;;4.33;90.29;96560.28;5980478;29;20226;-41
2023/04/15 08:01:03;;;;;;;2.80;1.30;;;;;;;4.52;90.32;96602.38;6009818;29;20270;-42
2023/04/15 08:04:31;;;;;;;1.20;0.90;;;;;;;4.53;90.40;96606.63;6012582;29;20270;-41
2023/04/15 08:08:00;;;;;;;2.37;1.27;;;;;;;4.54;90.41;96609.03;6001383;29;20232;-41
2023/04/15 08:11:25;;;;;;;2.33;1.30;;;;;;;4.51;90.41;96619.25;5988330;29;20233;-41
2023/04/15 08:14:45;;;;;;;1.60;1.50;;;;;;;4.52;90.28;96615.56;6007930;29;20231;-41
2023/04/15 08:17:56;;;;;;;1.63;1.40;;;;;;;4.44;90.47;96600.09;6009152;29;20251;-41
2023/04/15 08:20:59;;;;;;;1.63;1.33;;;;;;;4.52;90.36;96608.44;5998983;29;20232;-41
2023/04/15 08:24:02;;;;;;;1.60;1.50;;;;;;;4.42;90.49;96592.41;5997803;29;20820;-42
2023/04/15 08:27:04;;;;;;;1.70;1.60;;;;;;;4.63;90.36;96625.31;5998337;29;20313;-41
2023/04/15 08:30:07;;;;;;;1.70;1.60;;;;;;;4.69;90.37;96623.59;5994206;29;20708;-42
2023/04/15 08:33:09;;;;;;;1.53;1.27;;;;;;;4.70;90.22;96628.66;5991000;29;20236;-42
2023/04/15 08:36:12;;;;;;;2.50;1.50;;;;;;;4.70;90.17;96623.38;5999970;29;20732;-49
2023/04/15 08:39:14;;;;;;;1.47;1.30;;;;;;;4.59;90.08;96609.16;5991079;29;20224;-50
2023/04/15 08:42:20;;;;;;;1.93;1.73;;;;;;;4.72;90.06;96631.03;5993768;29;20278;-50
2023/04/15 08:45:22;;;;;;;1.67;1.57;;;;;;;4.79;90.18;96637.81;5989409;29;20233;-50
2023/04/15 08:48:28;;;;;;;1.87;1.60;;;;;;;4.83;90.16;96644.25;5992945;29;20234;-50
2023/04/15 08:51:32;;;;;;;3.90;1.60;;;;;;;4.84;89.98;96639.78;5997585;29;20232;-52
2023/04/15 08:54:35;;;;;;;1.63;1.53;;;;;;;4.84;89.79;96639.78;5998392;29;20267;-52
2023/04/15 08:57:38;;;;;;;2.00;1.80;;;;;;;4.89;89.89;96647.78;5990202;29;20647;-49
2023/04/15 09:00:40;;;;;;;1.80;1.40;;;;;;;4.93;90.02;96643.66;5992820;29;20235;-51
2023/04/15 09:03:43;;;;;;;1.63;1.33;;;;;;;4.85;89.85;96631.63;5994109;29;20231;-51
2023/04/15 09:06:46;;;;;;;1.90;1.70;;;;;;;5.02;89.81;96646.72;5992399;29;20232;-49
2023/04/15 09:09:48;;;;;;;1.87;1.53;;;;;;;5.12;90.08;96646.94;5992905;29;20239;-52
2023/04/15 09:12:50;;;;;;;3.33;1.77;;;;;;;5.16;89.78;96653.38;5993687;29;21861;-50
2023/04/15 09:15:52;;;;;;;1.83;1.70;;;;;;;5.19;89.48;96650.28;5992824;29;20645;-49
2023/04/15 09:18:54;;;;;;;1.80;1.70;;;;;;;5.36;89.68;96650.34;5989602;29;20249;-50
2023/04/15 09:21:58;;;;;;;2.20;1.70;;;;;;;5.45;89.44;96651.59;5992873;29;20705;-50
2023/04/15 09:25:00;;;;;;;1.60;1.47;;;;;;;5.49;88.82;96665.94;5989765;29;20324;-50
2023/04/15 09:28:03;;;;;;;1.90;1.40;;;;;;;5.26;88.32;96615.81;5994086;29;20283;-52
2023/04/15 09:31:05;;;;;;;1.93;1.40;;;;;;;5.50;88.54;96649.03;5991517;29;20614;-50
2023/04/15 09:34:07;;;;;;;1.60;1.50;;;;;;;5.65;88.82;96661.75;5992615;29;20267;-50
2023/04/15 09:37:10;;;;;;;1.30;1.20;;;;;;;5.77;88.67;96667.81;5994426;29;20240;-50
2023/04/15 09:40:12;;;;;;;1.90;1.27;;;;;;;5.80;88.24;96674.44;5995864;29;20385;-52
2023/04/15 09:43:16;;;;;;;1.60;1.50;;;;;;;5.61;88.48;96640.28;5997490;29;20250;-50
2023/04/15 09:46:18;;;;;;;1.00;1.00;;;;;;;5.86;88.24;96670.84;5996520;29;20236;-50
2023/04/15 09:49:21;;;;;;;2.03;1.30;;;;;;;5.86;88.01;96676.13;5997532;29;20384;-53
2023/04/15 09:52:23;;;;;;;1.47;0.90;;;;;;;5.74;87.04;96680.69;6007660;29;20238;-50
2023/04/15 09:55:25;;;;;;;1.10;1.00;;;;;;;5.69;87.47;96682.19;5996061;29;20610;-51
2023/04/15 09:58:29;;;;;;;0.80;0.80;;;;;;;5.71;87.73;96679.28;5997248;29;20242;-52
2023/04/15 10:01:32;;;;;;;0.97;0.97;;;;;;;5.49;87.47;96654.56;6009477;29;20599;-51
2023/04/15 10:04:38;;;;;;;3.73;1.27;;;;;;;5.69;87.70;96684.81;5996060;29;20234;-53
2023/04/15 10:07:41;;;;;;;1.37;0.90;;;;;;;5.64;87.45;96682.09;5996626;29;20257;-49
2023/04/15 10:10:45;;;;;;;1.47;1.20;;;;;;;5.48;87.49;96664.34;5996820;29;20249;-51
2023/04/15 10:13:49;;;;;;;2.60;1.03;;;;;;;5.60;87.24;96691.50;5997433;29;20324;-51
2023/04/15 10:16:55;;;;;;;1.17;0.80;;;;;;;5.65;87.63;96688.97;5992745;29;20244;-52
2023/04/15 10:19:59;;;;;;;1.43;1.13;;;;;;;5.73;87.32;96700.22;6009912;29;20813;-53
2023/04/15 10:23:02;;;;;;;1.17;0.93;;;;;;;5.78;87.30;96692.38;5997555;29;20249;-50
2023/04/15 10:26:05;;;;;;;0.50;0.50;;;;;;;5.79;86.98;96694.78;5995440;29;20300;-53
2023/04/15 10:29:09;;;;;;;1.50;0.60;;;;;;;5.82;86.82;96704.09;6000853;29;20234;-51
2023/04/15 10:32:12;;;;;;;0.73;0.60;;;;;;;5.72;86.22;96704.69;5997285;29;20768;-53
2023/04/15 10:35:16;;;;;;;1.13;0.80;;;;;;;5.57;86.67;96685.91;5996368;29;20305;-51
2023/04/15 10:38:32;;;;;;;1.63;0.97;;;;;;;5.73;86.79;96716.88;5995254;29;20233;-50
2023/04/15 10:41:35;;;;;;;0.60;0.60;;;;;;;5.68;87.06;96714.13;5995356;29;20238;-50
2023/04/15 10:44:41;;;;;;;1.57;0.60;;;;;;;5.67;87.41;96721.25;5996107;29;20236;-50
2023/04/15 10:47:44;;;;;;;2.20;0.77;;;;;;;5.55;87.18;96690.59;5992001;29;20321;-50
2023/04/15 10:50:57;;;;;;;0.60;0.40;;;;;;;5.65;86.27;96719.88;5996701;29;20249;-50
2023/04/15 10:54:00;;;;;;;0.30;0.30;;;;;;;5.58;85.94;96712.09;5991925;29;20653;-49
2023/04/15 10:57:05;;;;;;;1.50;0.40;;;;;;;5.67;85.05;96707.25;5995741;29;20301;-53
2023/04/15 11:00:10;;;;;;;1.47;0.37;;;;;;;5.94;86.16;96734.75;5999352;29;20249;-52
2023/04/15 11:03:14;;;;;;;0.30;0.30;;;;;;;6.02;86.26;96716.91;5996185;29;20238;-51
2023/04/15 11:06:17;;;;;;;0.80;0.30;;;;;;;6.18;86.58;96727.53;5996639;29;20249;-49
2023/04/15 11:09:35;;;;;;;1.27;0.40;;;;;;;6.05;85.54;96713.78;5995768;29;20225;-50
2023/04/15 11:12:40;;;;;;;0.37;0.37;;;;;;;6.13;83.20;96729.28;5992537;29;20240;-50
2023/04/15 11:15:47;;;;;;;0.27;0.27;;;;;;;6.18;80.79;96732.81;5994365;29;20232;-51
2023/04/15 11:18:54;;;;;;;0.27;0.27;;;;;;;6.09;81.59;96742.16;6009205;29;20239;-49
2023/04/15 11:21:56;;;;;;;0.50;0.40;;;;;;;6.15;83.48;96716.63;5992804;29;20238;-51
2023/04/15 11:24:58;;;;;;;0.43;0.37;;;;;;;6.31;84.10;96739.66;5993993;29;20273;-52
2023/04/15 11:28:01;;;;;;;0.30;0.30;;;;;;;6.48;84.16;96739.69;5995399;29;20614;-50
2023/04/15 11:31:12;;;;;;;0.57;0.43;;;;;;;6.73;83.90;96747.25;5999383;29;20237;-50
2023/04/15 11:34:21;;;;;;;0.43;0.40;;;;;;;6.86;82.58;96746.94;5991773;29;20256;-50
2023/04/15 11:37:28;;;;;;;0.30;0.30;;;;;;;6.73;79.22;96747.25;5994935;29;20252;-50
2023/04/15 11:40:34;;;;;;;0.40;0.40;;;;;;;6.70;80.70;96748.53;5989739;29;20254;-50
2023/04/15 11:43:37;;;;;;;0.30;0.30;;;;;;;6.60;81.63;96723.72;5994785;29;20249;-50
2023/04/15 11:46:39;;;;;;;0.53;0.40;;;;;;;6.34;79.86;96704.78;5995009;29;20265;-51
2023/04/15 11:49:42;;;;;;;0.97;0.50;;;;;;;6.34;83.08;96723.31;5993658;29;20241;-51
2023/04/15 11:53:00;;;;;;;0.70;0.50;;;;;;;6.59;82.53;96757.34;5994171;29;20238;-55
2023/04/15 11:56:02;;;;;;;0.70;0.50;;;;;;;6.69;82.48;96754.06;5998299;29;20801;-54
2023/04/15 11:59:04;;;;;;;0.40;0.40;;;;;;;6.70;82.59;96766.28;5990020;29;20582;-48
2023/04/15 12:02:13;;;;;;;0.40;0.40;;;;;;;6.32;82.52;96716.66;5993655;29;20239;-50
2023/04/15 12:05:15;;;;;;;0.33;0.30;;;;;;;6.35;79.59;96750.56;5993604;29;20253;-49
2023/04/15 12:08:17;;;;;;;0.30;0.30;;;;;;;6.33;82.15;96773.81;5994419;29;20231;-52
2023/04/15 12:11:26;;;;;;;0.10;0.10;;;;;;;6.11;76.86;96744.59;5994329;29;20234;-49
2023/04/15 12:14:32;;;;;;;0.47;0.43;;;;;;;6.46;78.83;96776.19;5994206;29;20316;-42
2023/04/15 12:17:34;;;;;;;0.60;0.43;;;;;;;6.64;78.72;96770.66;5992932;29;20807;-41
2023/04/15 12:20:53;;;;;;;0.70;0.70;;;;;;;6.81;77.79;96785.75;5993841;29;20301;-41
2023/04/15 12:23:57;;;;;;;0.40;0.40;;;;;;;6.76;79.91;96781.19;5993624;29;20382;-40
2023/04/15 12:27:03;;;;;;;0.40;0.20;;;;;;;6.73;78.62;96784.31;6007737;29;20332;-41
2023/04/15 12:30:06;;;;;;;0.37;0.20;;;;;;;6.79;77.27;96782.53;5993312;29;20609;-40
2023/04/15 12:33:09;;;;;;;0.10;0.10;;;;;;;6.81;75.69;96786.56;5992893;29;20302;-41
2023/04/15 12:36:12;;;;;;;0.10;0.10;;;;;;;6.80;74.57;96787.63;5987668;29;20337;-40
2023/04/15 12:39:14;;;;;;;0.30;0.27;;;;;;;6.77;72.95;96798.66;6005610;29;20229;-41
2023/04/15 12:42:17;;;;;;;0.10;0.10;;;;;;;6.70;74.40;96795.38;5993721;29;20229;-41
2023/04/15 12:45:20;;;;;;;0.53;0.20;;;;;;;6.78;75.20;96797.63;5992334;29;20314;-41
2023/04/15 12:48:22;;;;;;;0.10;0.10;;;;;;;6.98;75.00;96787.38;5992470;29;20242;-41
2023/04/15 12:51:25;;;;;;;0.20;0.20;;;;;;;7.13;74.38;96788.66;5992705;29;20312;-41
2023/04/15 12:54:28;;;;;;;0.10;0.10;;;;;;;7.13;74.89;96796.59;5993154;29;20364;-41
2023/04/15 12:57:30;;;;;;;0.20;0.20;;;;;;;7.23;72.50;96796.75;5996844;29;20330;-42
2023/04/15 13:03:55;;;;;;;0.10;0.10;;;;;;;7.27;75.35;96789.94;5967916;29;20251;-41
2023/04/15 13:06:57;;;;;;;0.17;0.17;;;;;;;7.47;73.65;96800.03;5968368;29;20257;-41
2023/04/15 13:09:59;;;;;;;0.10;0.10;;;;;;;7.52;70.28;96809.88;5970074;29;20247;-41
2023/04/15 13:13:02;;;;;;;0.30;0.20;;;;;;;7.55;72.76;96809.41;5973794;29;20243;-52
2023/04/15 13:16:05;;;;;;;0.43;0.40;;;;;;;7.40;71.33;96813.44;5975713;29;20337;-51
2023/04/15 13:19:07;;;;;;;0.20;0.20;;;;;;;7.38;70.91;96814.72;5973902;29;20252;-41
2023/04/15 13:22:10;;;;;;;0.20;0.20;;;;;;;7.15;74.02;96787.38;5972606;29;21039;-42
2023/04/15 13:25:12;;;;;;;0.20;0.10;;;;;;;7.01;71.50;96812.56;5974315;29;20307;-44
2023/04/15 13:28:14;;;;;;;0.10;0.10;;;;;;;6.89;73.48;96812.63;5974264;29;20344;-42
2023/04/15 13:31:16;;;;;;;0.10;0.10;;;;;;;6.76;72.97;96818.25;5974574;29;20995;-41
2023/04/15 13:34:18;;;;;;;0.17;0.17;;;;;;;6.91;74.31;96820.34;5973057;29;20341;-51
2023/04/15 13:37:26;;;;;;;0.20;0.20;;;;;;;7.06;73.93;96819.81;5974054;29;20395;-49
2023/04/15 13:40:29;;;;;;;0.20;0.20;;;;;;;7.10;73.33;96819.09;5956105;29;20240;-51
2023/04/15 13:43:33;;;;;;;0.20;0.20;;;;;;;6.96;71.28;96793.97;5973352;29;20727;-51
2023/04/15 13:46:36;;;;;;;0.10;0.10;;;;;;;7.14;71.93;96825.50;5973908;29;20241;-52
2023/04/15 13:49:38;;;;;;;0.33;0.20;;;;;;;7.19;72.61;96816.81;5974788;29;20250;-53
2023/04/15 13:52:41;;;;;;;0.93;0.20;;;;;;;7.39;72.10;96830.41;5974233;29;20281;-53
2023/04/15 13:55:43;;;;;;;0.17;0.17;;;;;;;7.44;70.73;96824.38;5973598;29;20612;-53
2023/04/15 13:58:45;;;;;;;0.10;0.10;;;;;;;7.63;71.88;96835.50;5973603;29;20265;-53
2023/04/15 14:01:47;;;;;;;0.20;0.20;;;;;;;7.66;70.89;96825.22;5976557;29;20235;-52
2023/04/15 14:04:50;;;;;;;0.30;0.30;;;;;;;7.74;66.82;96830.09;5973623;29;20999;-52
2023/04/15 14:07:52;;;;;;;0.10;0.10;;;;;;;7.75;66.63;96829.06;5973331;29;20246;-51
2023/04/15 14:10:54;;;;;;;0.10;0.10;;;;;;;7.64;68.92;96837.13;5974896;29;20242;-51
2023/04/15 14:13:56;;;;;;;0.33;0.10;;;;;;;7.45;69.21;96813.53;5971839;29;20242;-50
2023/04/15 14:16:58;;;;;;;3.17;1.00;;;;;;;7.74;69.26;96839.91;5972780;29;20609;-53
2023/04/15 14:20:01;;;;;;;0.13;0.13;;;;;;;7.55;67.50;96828.78;5973667;29;20245;-52
2023/04/15 14:23:03;;;;;;;0.17;0.17;;;;;;;7.45;70.42;96841.88;5958124;29;20239;-53
2023/04/15 14:26:05;;;;;;;0.50;0.10;;;;;;;7.47;69.76;96860.97;5973235;29;20247;-52
2023/04/15 14:29:07;;;;;;;0.10;0.10;;;;;;;7.26;70.45;96859.06;5973190;29;20326;-51
2023/04/15 14:32:09;;;;;;;0.10;0.10;;;;;;;7.24;71.49;96868.06;5973085;29;20242;-49
2023/04/15 14:35:13;;;;;;;0.10;0.10;;;;;;;7.27;72.64;96871.25;5956139;29;20231;-50
2023/04/15 14:38:15;;;;;;;0.20;0.20;;;;;;;7.20;72.50;96874.06;5970132;29;20281;-51
2023/04/15 14:41:17;;;;;;;0.10;0.10;;;;;;;7.08;72.41;96875.97;5972866;29;20235;-49